EW7149 Weather Reports


Display with metric or nautical units.
time (UTC)temp
F
wind
direction
speed
MPH
gust
MPH
rain 1hr
in
rain 24hr
in
rain mn
in
humidity
%
barometer
mb
20260904161820 83 277 1.0 7.0 0.00 0.38 0.19 1 1013.7
20260904161305 83 288 0.0 4.0 0.00 0.38 0.19 1 1013.7
20260904160812 83 260 0.0 3.0 0.00 0.38 0.19 1 1013.7
20260904160309 82 238 0.0 5.0 0.00 0.38 0.19 1 1013.8
20260904155752 82 234 0.0 5.0 0.00 0.38 0.19 1 1013.8
20260904155259 82 301 0.0 5.0 0.00 0.39 0.19 1 1013.9
20260904154806 81 327 0.0 5.0 0.00 0.39 0.19 1 1013.9
20260904154316 81 348 0.0 6.0 0.00 0.40 0.19 1 1014.0
20260904153807 81 350 1.0 6.0 0.00 0.40 0.19 1 1014.0
20260904152644 80 188 0.0 6.0 0.00 0.40 0.19 1 1014.2
20260904152138 80 280 0.0 3.0 0.00 0.40 0.19 1 1014.2
20260904151636 80 232 0.0 11.0 0.00 0.40 0.19 1 1014.2
20260904150500 79 261 2.0 11.0 0.00 0.41 0.19 1 1014.1
20260904145334 78 180 1.0 6.0 0.00 0.41 0.19 1 1014.1
20260904144833 77 272 1.0 6.0 0.00 0.41 0.19 1 1014.1
20260904144343 76 298 1.0 5.0 0.00 0.41 0.19 1 1014.0
20260904143849 76 291 0.0 2.0 0.00 0.41 0.19 1 1014.1
20260904142729 76 26 1.0 6.0 0.00 0.41 0.19 1 1014.1
20260904142239 76 300 1.0 6.0 0.00 0.41 0.19 1 1013.9
20260904141720 76 269 0.0 6.0 0.00 0.41 0.19 1 1013.9
20260904141220 75 283 0.0 5.0 0.00 0.41 0.19 1 1013.9
20260904140725 75 91 0.0 3.0 0.00 0.41 0.19 1 1014.0
20260904135559 74 292 0.0 6.0 0.00 0.41 0.19 1 1014.0
20260904134432 73 278 0.0 6.0 0.00 0.41 0.19 1 1014.0
20260904133942 73 284 0.0 6.0 0.00 0.41 0.19 1 1014.0
20260904133445 73 282 0.0 3.0 0.00 0.41 0.19 1 1014.0
20260904132929 73 331 0.0 6.0 0.00 0.41 0.19 1 1014.0
20260904132437 72 17 0.0 6.0 0.00 0.41 0.19 1 1014.0
20260904131936 72 311 0.0 3.0 0.00 0.41 0.19 1 1014.0
20260904131417 72 65 0.0 3.0 0.00 0.41 0.19 1 1014.0
20260904130908 72 265 0.0 1.0 0.00 0.41 0.19 1 1013.9
20260904125109 72 355 0.0 0.0 0.00 0.41 0.19 1 1013.7
20260904124553 72 273 0.0 0.0 0.00 0.41 0.19 1 1013.8
20260904123430 72 252 0.0 0.0 0.00 0.41 0.19 1 1013.8
20260904122925 72 252 0.0 2.0 0.00 0.41 0.19 1 1013.8
20260904122428 71 282 0.0 0.0 0.00 0.41 0.19 1 1013.7
20260904121910 71 282 0.0 1.0 0.00 0.41 0.19 1 1013.8
20260904120728 71 289 0.0 0.0 0.00 0.41 0.19 1 1013.7
20260904120238 71 289 0.0 0.0 0.00 0.41 0.19 1 1013.7
20260904115727 71 289 0.0 0.0 0.00 0.41 0.19 1 1013.6
20260904115221 71 289 0.0 0.0 0.00 0.41 0.19 1 1013.6
20260904114710 71 290 0.0 0.0 0.00 0.41 0.19 1 1013.6
20260904114203 71 290 0.0 0.0 0.00 0.41 0.19 1 1013.5
20260904113707 71 290 0.0 0.0 0.00 0.41 0.19 1 1013.6
20260904113204 71 290 0.0 1.0 0.00 0.41 0.19 1 1013.6
20260904112037 71 290 0.0 0.0 0.00 0.41 0.19 1 1013.5
20260904111523 71 290 0.0 0.0 0.00 0.41 0.19 1 1013.5
20260904111021 71 234 0.0 0.0 0.00 0.41 0.19 1 1013.4
20260904110515 71 234 0.0 0.0 0.00 0.41 0.19 1 1013.3
20260904110014 71 234 0.0 0.0 0.00 0.41 0.19 1 1013.4
20260904105512 71 234 0.0 0.0 0.00 0.41 0.19 1 1013.2
20260904105016 71 234 0.0 0.0 0.00 0.42 0.19 1 1013.3
20260904104457 71 234 0.0 0.0 0.00 0.42 0.19 1 1013.3
20260904103953 71 234 0.0 0.0 0.00 0.42 0.19 1 1013.1
20260904103455 71 234 0.0 0.0 0.00 0.42 0.19 1 1012.9
20260904102939 71 234 0.0 1.0 0.00 0.42 0.19 1 1013.3
20260904102433 71 302 0.0 0.0 0.00 0.42 0.19 1 1013.0
20260904101918 71 302 0.0 0.0 0.00 0.42 0.19 1 1013.0
20260904101400 71 302 0.0 0.0 0.00 0.42 0.19 1 1013.0
20260904100904 71 302 0.0 0.0 0.00 0.42 0.19 1 1012.7
20260904100411 71 303 0.0 1.0 0.00 0.42 0.19 1 1012.7
20260904095918 71 304 0.0 0.0 0.00 0.42 0.19 1 1012.5
20260904095407 71 304 0.0 0.0 0.00 0.42 0.19 1 1012.5
20260904094918 71 304 0.0 0.0 0.04 0.42 0.19 1 1012.7
20260904094412 71 304 0.0 0.0 0.06 0.42 0.19 1 1012.9
20260904093913 71 291 0.0 3.0 0.13 0.42 0.19 1 1013.0
20260904093408 71 250 0.0 0.0 0.23 0.41 0.18 1 1012.9
20260904092902 71 250 0.0 4.0 0.47 0.37 0.16 1 1013.2
20260904092408 71 305 0.0 4.0 0.52 0.33 0.12 1 1013.5
20260904091915 71 282 0.0 4.0 0.40 0.31 0.09 1 1013.2
20260904091420 71 250 0.0 2.0 0.00 0.25 0.02 1 1013.6
20260904090913 71 251 0.0 0.0 0.00 0.25 0.02 1 1012.8
20260904090357 71 251 0.0 0.0 0.00 0.25 0.02 1 1012.7
20260904085327 71 251 0.0 0.0 0.00 0.25 0.02 1 1012.8
20260904084821 71 251 0.0 0.0 0.00 0.25 0.02 1 1012.9
20260904084316 71 251 0.0 0.0 0.00 0.25 0.02 1 1012.8
20260904083758 71 251 0.0 0.0 0.00 0.25 0.02 1 1012.7
20260904083257 71 251 0.0 0.0 0.00 0.25 0.02 1 1012.7
20260904082758 71 251 0.0 0.0 0.00 0.25 0.02 1 1012.6
20260904082307 71 251 0.0 0.0 0.00 0.25 0.02 1 1012.5
20260904081815 71 251 0.0 0.0 0.00 0.25 0.02 1 1012.5
20260904081312 71 251 0.0 0.0 0.00 0.25 0.02 1 1012.5
20260904080808 71 251 0.0 0.0 0.00 0.25 0.02 1 1012.4
20260904080255 71 255 0.0 0.0 0.00 0.25 0.02 1 1012.3
20260904075754 71 254 0.0 3.0 0.00 0.25 0.02 1 1012.2
20260904075241 71 300 0.0 3.0 0.00 0.25 0.02 1 1012.2
20260904074742 71 244 0.0 3.0 0.00 0.25 0.02 1 1012.3
20260904074247 71 287 0.0 0.0 0.00 0.25 0.02 1 1012.3
20260904073732 71 288 0.0 5.0 0.00 0.25 0.02 1 1012.4
20260904073225 71 257 0.0 5.0 0.00 0.25 0.02 1 1012.2
20260904072203 71 270 0.0 0.0 0.00 0.25 0.02 1 1012.3
20260904071653 71 252 0.0 3.0 0.00 0.25 0.02 1 1012.4
20260904070645 70 292 0.0 0.0 0.00 0.25 0.02 1 1012.3
20260904070133 70 285 0.0 0.0 0.00 0.25 0.02 1 1012.2
20260904065617 71 285 0.0 0.0 0.00 0.25 0.02 1 1012.3
20260904065116 71 285 0.0 0.0 0.00 0.25 0.02 1 1012.1
20260904064113 71 251 0.0 3.0 0.00 0.25 0.02 1 1012.1
20260904063600 71 95 0.0 2.0 0.00 0.25 0.02 1 1012.0
20260904063047 71 255 1.0 0.0 0.00 0.25 0.02 1 1011.9
20260904062535 71 249 1.0 8.0 0.00 0.25 0.02 1 1011.8
20260904061518 71 280 0.0 5.0 0.00 0.25 0.02 1 1011.6
20260904061004 71 113 0.0 7.0 0.00 0.25 0.02 1 1011.6
20260904060506 71 216 1.0 7.0 0.00 0.25 0.02 1 1011.7
20260904055509 71 268 0.0 7.0 0.00 0.25 0.02 1 1011.8
20260904054502 71 282 0.0 6.0 0.00 0.25 0.02 1 1011.9
20260904054006 71 254 0.0 6.0 0.00 0.25 0.02 1 1012.1
20260904053514 71 217 0.0 3.0 0.00 0.25 0.02 1 1012.3
20260904053022 71 267 0.0 3.0 0.00 0.25 0.02 1 1012.4
20260904052523 71 254 0.0 2.0 0.00 0.25 0.02 1 1012.6
20260904052010 71 244 0.0 0.0 0.00 0.25 0.02 1 1012.5
20260904051515 71 244 0.0 5.0 0.00 0.25 0.02 1 1012.8
20260904050958 71 261 0.0 3.0 0.00 0.25 0.02 1 1012.8
20260904050439 71 252 0.0 0.0 0.00 0.25 0.02 1 1012.6
20260904045924 71 258 0.0 0.0 0.00 0.25 0.02 1 1012.4
20260904045413 72 278 0.0 3.0 0.00 0.25 0.02 1 1012.3
20260904044856 72 246 0.0 3.0 0.00 0.25 0.02 1 1012.6
20260904044346 72 281 0.0 0.0 0.00 0.25 0.02 1 1012.7
20260904043839 72 281 0.0 0.0 0.00 0.25 0.02 1 1012.5
20260904042310 72 281 0.0 0.0 0.05 0.25 0.02 1 1012.6
20260904041805 72 281 0.0 1.0 0.08 0.25 0.02 1 1012.8
20260904041312 72 324 0.0 4.0 0.09 0.23 0.02 1 1013.0
20260904040754 72 303 0.0 11.0 0.06 0.23 0.01 1 1013.7
20260904035741 73 263 2.0 11.0 0.10 0.23 0.23 1 1014.1
20260904035233 73 263 2.0 11.0 0.09 0.21 0.21 1 1014.3
20260904034722 74 293 2.0 9.0 0.06 0.21 0.21 1 1014.6
20260904033658 74 315 2.0 8.0 0.00 0.19 0.20 1 1014.8
20260904033147 74 316 1.0 7.0 0.00 0.19 0.19 1 1014.7
20260904032647 74 276 0.0 3.0 0.00 0.19 0.19 1 1014.4
20260904032155 74 236 0.0 0.0 0.04 0.19 0.19 1 1013.4
20260904031655 74 237 0.0 0.0 0.05 0.19 0.19 1 1013.5
20260904030636 75 288 0.0 3.0 0.06 0.19 0.19 1 1014.0
20260904030135 76 162 0.0 13.0 0.10 0.18 0.18 1 1014.2
20260904025630 77 240 1.0 13.0 0.43 0.16 0.18 1 1014.4
20260904025137 78 240 3.0 13.0 0.99 0.12 0.13 1 1014.6
20260904024121 80 238 3.0 12.0 0.00 0.04 0.04 1 1014.6
20260904023602 81 253 1.0 12.0 0.00 0.04 0.04 1 1014.3
20260904023053 81 257 0.0 5.0 0.00 0.04 0.04 1 1013.7
20260904022600 81 244 0.0 5.0 0.00 0.04 0.04 1 1013.4
20260904022052 81 254 0.0 5.0 0.00 0.04 0.04 1 1013.6
20260904021602 81 255 0.0 3.0 0.00 0.04 0.04 1 1013.6
20260904021058 81 240 0.0 1.0 0.00 0.04 0.04 1 1013.6
20260904020553 81 241 0.0 1.0 0.00 0.04 0.04 1 1013.4
20260904015116 81 155 0.0 4.0 0.00 0.04 0.04 1 1013.1
20260904014612 80 180 0.0 4.0 0.00 0.04 0.04 1 1013.2
20260904014105 80 192 0.0 4.0 0.00 0.04 0.04 1 1013.2
20260904013609 80 237 0.0 4.0 0.00 0.04 0.04 1 1013.3
20260904013052 80 157 0.0 4.0 0.00 0.04 0.04 1 1013.2
20260904012023 80 180 0.0 2.0 0.00 0.04 0.04 1 1012.9
20260904011521 80 200 0.0 0.0 0.00 0.04 0.04 1 1012.8
20260904011020 80 200 0.0 0.0 0.00 0.04 0.04 1 1012.8
20260904010524 80 200 0.0 2.0 0.00 0.04 0.04 1 1012.8
20260904010029 80 200 0.0 0.0 0.00 0.04 0.04 1 1012.8
20260904005514 80 200 0.0 2.0 0.00 0.04 0.04 1 1012.8
20260904004954 80 200 0.0 1.0 0.00 0.04 0.04 1 1013.0
20260904004456 80 200 0.0 1.0 0.00 0.04 0.04 1 1013.2
20260904004003 80 200 0.0 1.0 0.00 0.04 0.04 1 1013.3
20260904003507 80 203 0.0 2.0 0.00 0.04 0.04 1 1013.5
20260904003002 81 248 0.0 0.0 0.00 0.04 0.04 1 1013.5
20260904002502 81 248 0.0 0.0 0.00 0.04 0.04 1 1013.5
20260904001944 81 248 0.0 0.0 0.00 0.04 0.04 1 1013.6
20260904001444 81 248 0.0 0.0 0.00 0.04 0.04 1 1013.6
20260904000930 81 248 0.0 0.0 0.00 0.04 0.04 1 1013.7
20260904000418 82 248 0.0 0.0 0.00 0.04 0.04 1 1013.8
20260903235902 82 248 0.0 0.0 0.00 0.04 0.04 1 1013.7
20260903235400 83 248 0.0 0.0 0.00 0.04 0.04 1 1013.7
20260903234845 83 248 0.0 0.0 0.00 0.04 0.04 1 1013.5
20260903234335 84 248 0.0 0.0 0.00 0.04 0.04 1 1013.5
20260903233834 84 248 0.0 0.0 0.00 0.04 0.04 1 1013.2
20260903233321 85 248 0.0 0.0 0.00 0.04 0.04 1 1013.0
20260903232830 85 248 0.0 0.0 0.00 0.04 0.04 1 1013.0
20260903232313 86 248 0.0 0.0 0.00 0.04 0.04 1 1013.1
20260903231808 86 248 0.0 0.0 0.00 0.04 0.04 1 1013.1
20260903231313 86 248 0.0 0.0 0.00 0.04 0.04 1 1013.2
20260903230757 87 248 0.0 0.0 0.00 0.04 0.04 1 1013.0
20260903230307 87 248 0.0 0.0 0.00 0.04 0.04 1 1013.0
20260903225753 87 248 0.0 0.0 0.00 0.04 0.04 1 1012.9
20260903225251 88 248 0.0 0.0 0.00 0.04 0.04 1 1013.1
20260903224737 88 248 0.0 0.0 0.00 0.04 0.04 1 1013.1
20260903224220 88 248 0.0 0.0 0.00 0.04 0.04 1 1013.1
20260903223716 88 248 0.0 0.0 0.00 0.04 0.04 1 1013.0
20260903223208 89 248 0.0 0.0 0.00 0.04 0.04 1 1012.8
20260903222703 89 268 0.0 0.0 0.00 0.04 0.04 4 1012.8
20260903222155 89 267 0.0 0.0 0.00 0.04 0.04 6 1012.9
20260903221658 89 268 0.0 0.0 0.00 0.04 0.04 7 1012.8
20260903221140 89 229 0.0 0.0 0.00 0.04 0.04 6 1012.7
20260903220633 89 272 0.0 0.0 0.00 0.04 0.04 7 1012.8
20260903220132 89 281 0.0 0.0 0.00 0.04 0.04 11 1012.7
20260903215627 89 242 0.0 0.0 0.00 0.04 0.04 10 1012.8
20260903215132 89 212 0.0 0.0 0.00 0.04 0.04 10 1012.8
20260903214631 89 229 0.0 0.0 0.00 0.04 0.04 8 1012.8
20260903214139 89 182 0.0 1.0 0.00 0.04 0.04 17 1012.7
20260903213623 89 126 0.0 2.0 0.00 0.04 0.04 12 1012.8
20260903212045 88 165 0.0 0.0 0.00 0.04 0.04 17 1012.8
20260903211549 88 165 0.0 1.0 0.00 0.04 0.04 11 1012.8
20260903211032 88 164 0.0 1.0 0.00 0.04 0.04 14 1012.9
20260903210524 88 234 0.0 3.0 0.00 0.04 0.04 13 1012.9
20260903210033 88 284 0.0 1.0 0.00 0.04 0.04 19 1012.9
20260903205520 88 14 0.0 0.0 0.00 0.04 0.04 21 1012.9
20260903205005 88 267 0.0 2.0 0.00 0.04 0.04 20 1012.9
20260903203933 87 293 0.0 0.0 0.00 0.04 0.04 20 1013.1
20260903203418 87 284 0.0 0.0 0.00 0.04 0.04 15 1013.2
20260903202404 87 235 0.0 3.0 0.00 0.04 0.04 20 1013.3
20260903201902 87 267 0.0 3.0 0.00 0.04 0.04 19 1013.4
20260903201411 86 182 0.0 3.0 0.00 0.04 0.04 20 1013.5
20260903200917 86 294 0.0 0.0 0.00 0.04 0.04 23 1013.6
20260903200424 86 290 0.0 3.0 0.00 0.04 0.04 10 1013.6
20260903195921 85 248 0.0 0.0 0.00 0.04 0.04 11 1013.7
20260903195424 85 282 0.0 2.0 0.00 0.04 0.04 17 1013.7
20260903194427 85 272 0.0 10.0 0.00 0.04 0.04 18 1013.8
20260903193413 85 335 0.0 5.0 0.00 0.04 0.04 9 1014.0
20260903192913 85 312 0.0 5.0 0.00 0.04 0.04 8 1014.2
20260903191849 84 215 0.0 2.0 0.00 0.04 0.04 1 1014.3
20260903190854 83 267 0.0 0.0 0.00 0.04 0.04 1 1014.4
20260903190404 82 236 0.0 0.0 0.00 0.04 0.04 1 1014.5
20260903185908 82 142 0.0 8.0 0.00 0.04 0.04 1 1014.6
20260903185353 82 113 0.0 5.0 0.00 0.04 0.04 1 1014.7
20260903184847 82 243 0.0 0.0 0.00 0.04 0.04 1 1014.6
20260903184342 82 256 1.0 11.0 0.00 0.04 0.04 1 1014.7
20260903183836 82 298 2.0 8.0 0.00 0.04 0.04 1 1014.7
20260903183328 83 261 1.0 8.0 0.00 0.04 0.04 1 1014.6
20260903182320 82 147 1.0 8.0 0.00 0.04 0.04 1 1014.8
20260903181322 81 288 1.0 9.0 0.00 0.04 0.04 1 1014.8
20260903180810 80 260 1.0 9.0 0.00 0.04 0.04 1 1014.8
20260903180314 80 247 1.0 9.0 0.00 0.04 0.04 1 1014.8
20260903175757 80 14 2.0 9.0 0.00 0.04 0.04 1 1015.1
20260903175242 80 252 1.0 8.0 0.00 0.04 0.04 1 1015.0
20260903174744 79 275 1.0 7.0 0.00 0.04 0.04 1 1015.0
20260903173735 78 259 1.0 7.0 0.00 0.04 0.04 1 1015.0
20260903173243 77 293 1.0 6.0 0.00 0.04 0.04 1 1015.3
20260903172753 77 290 1.0 6.0 0.00 0.04 0.04 1 1015.4
20260903171740 77 285 1.0 11.0 0.00 0.04 0.04 1 1015.5
20260903171221 77 285 1.0 11.0 0.00 0.05 0.04 1 1015.7
20260903170717 77 302 1.0 7.0 0.00 0.11 0.04 1 1015.8
20260903170215 77 76 1.0 7.0 0.00 0.21 0.04 1 1015.7
20260903165204 77 257 2.0 7.0 0.00 0.46 0.04 1 1016.0
20260903164219 77 269 1.0 6.0 0.00 0.47 0.04 1 1016.0
20260903163711 77 154 1.0 6.0 0.00 0.47 0.04 1 1015.9
20260903163208 77 153 0.0 4.0 0.00 0.47 0.04 1 1015.7
20260903162657 77 132 0.0 3.0 0.00 0.47 0.04 1 1015.9
20260903162138 76 167 0.0 5.0 0.00 0.47 0.04 1 1015.7